sensor_id;sensor_type;location;lat;lon;timestamp;pressure;altitude;pressure_sealevel;temperature;humidity
49813;BME280;35706;52.100;5.056;2023-10-13T00:00:08;101042.31;;;17.87;100.00
49813;BME280;35706;52.100;5.056;2023-10-13T00:01:25;101039.75;;;17.94;100.00
49813;BME280;35706;52.100;5.056;2023-10-13T00:02:26;101044.44;;;17.92;100.00
49813;BME280;35706;52.100;5.056;2023-10-13T00:03:26;101033.06;;;17.98;100.00
49813;BME280;35706;52.100;5.056;2023-10-13T00:04:32;101042.31;;;17.87;100.00
49813;BME280;35706;52.100;5.056;2023-10-13T00:05:35;101039.81;;;17.85;100.00
49813;BME280;35706;52.100;5.056;2023-10-13T00:06:38;101030.66;;;17.88;100.00
49813;BME280;35706;52.100;5.056;2023-10-13T00:07:38;101045.72;;;17.96;100.00
49813;BME280;35706;52.100;5.056;2023-10-13T00:08:38;101033.06;;;17.98;100.00
49813;BME280;35706;52.100;5.056;2023-10-13T00:09:39;101030.97;;;17.93;100.00
49813;BME280;35706;52.100;5.056;2023-10-13T00:10:40;101035.63;;;17.91;100.00
49813;BME280;35706;52.100;5.056;2023-10-13T00:11:41;101032.59;;;17.94;100.00
49813;BME280;35706;52.100;5.056;2023-10-13T00:12:44;101022.88;;;17.86;100.00
49813;BME280;35706;52.100;5.056;2023-10-13T00:13:49;101024.69;;;17.86;100.00
49813;BME280;35706;52.100;5.056;2023-10-13T00:14:54;101040.84;;;17.84;100.00
49813;BME280;35706;52.100;5.056;2023-10-13T00:15:54;101022.13;;;17.93;100.00
49813;BME280;35706;52.100;5.056;2023-10-13T00:16:58;101021.97;;;17.94;100.00
49813;BME280;35706;52.100;5.056;2023-10-13T00:18:06;101022.78;;;17.95;100.00
49813;BME280;35706;52.100;5.056;2023-10-13T00:19:12;101024.44;;;17.96;100.00
49813;BME280;35706;52.100;5.056;2023-10-13T00:20:13;101019.94;;;17.96;100.00
49813;BME280;35706;52.100;5.056;2023-10-13T00:21:17;101021.69;;;17.89;100.00
49813;BME280;35706;52.100;5.056;2023-10-13T00:22:31;101023.09;;;18.00;100.00
49813;BME280;35706;52.100;5.056;2023-10-13T00:23:31;101031.41;;;17.97;100.00
49813;BME280;35706;52.100;5.056;2023-10-13T00:24:32;101026.16;;;17.88;100.00
49813;BME280;35706;52.100;5.056;2023-10-13T00:25:39;101038.19;;;17.84;100.00
49813;BME280;35706;52.100;5.056;2023-10-13T00:26:43;101029.66;;;17.89;100.00
49813;BME280;35706;52.100;5.056;2023-10-13T00:27:44;101037.16;;;17.85;100.00
49813;BME280;35706;52.100;5.056;2023-10-13T00:28:44;101017.75;;;17.77;100.00
49813;BME280;35706;52.100;5.056;2023-10-13T00:29:47;101016.25;;;17.82;100.00
49813;BME280;35706;52.100;5.056;2023-10-13T00:30:51;101018.00;;;17.90;100.00
49813;BME280;35706;52.100;5.056;2023-10-13T00:31:52;101026.91;;;17.82;100.00
49813;BME280;35706;52.100;5.056;2023-10-13T00:32:53;101011.59;;;17.84;100.00
49813;BME280;35706;52.100;5.056;2023-10-13T00:33:55;101008.44;;;17.81;100.00
49813;BME280;35706;52.100;5.056;2023-10-13T00:35:01;101006.00;;;17.71;100.00
49813;BME280;35706;52.100;5.056;2023-10-13T00:36:05;101005.41;;;17.61;100.00
49813;BME280;35706;52.100;5.056;2023-10-13T00:37:08;101001.94;;;17.60;100.00
49813;BME280;35706;52.100;5.056;2023-10-13T00:38:27;101001.34;;;17.73;100.00
49813;BME280;35706;52.100;5.056;2023-10-13T00:39:27;100999.16;;;17.77;100.00
49813;BME280;35706;52.100;5.056;2023-10-13T00:40:29;100995.75;;;17.68;100.00
49813;BME280;35706;52.100;5.056;2023-10-13T00:41:30;100992.00;;;17.77;100.00
49813;BME280;35706;52.100;5.056;2023-10-13T00:42:49;100995.00;;;17.82;100.00
49813;BME280;35706;52.100;5.056;2023-10-13T00:43:52;100998.69;;;17.73;100.00
49813;BME280;35706;52.100;5.056;2023-10-13T00:45:05;100995.75;;;17.68;100.00
49813;BME280;35706;52.100;5.056;2023-10-13T00:46:05;100994.63;;;17.62;100.00
49813;BME280;35706;52.100;5.056;2023-10-13T00:47:10;100997.16;;;17.79;100.00
49813;BME280;35706;52.100;5.056;2023-10-13T00:48:16;100993.91;;;17.68;100.00
49813;BME280;35706;52.100;5.056;2023-10-13T00:49:17;100999.44;;;17.82;100.00
49813;BME280;35706;52.100;5.056;2023-10-13T00:50:17;100995.63;;;17.84;100.00
49813;BME280;35706;52.100;5.056;2023-10-13T00:51:18;100993.72;;;17.70;100.00
49813;BME280;35706;52.100;5.056;2023-10-13T00:52:33;100986.63;;;17.62;100.00
49813;BME280;35706;52.100;5.056;2023-10-13T00:53:36;100972.47;;;17.70;100.00
49813;BME280;35706;52.100;5.056;2023-10-13T00:54:40;100977.41;;;17.73;100.00
49813;BME280;35706;52.100;5.056;2023-10-13T00:55:40;100983.19;;;17.77;100.00
49813;BME280;35706;52.100;5.056;2023-10-13T00:56:42;100981.38;;;17.77;100.00
49813;BME280;35706;52.100;5.056;2023-10-13T00:57:57;100997.28;;;17.85;100.00
49813;BME280;35706;52.100;5.056;2023-10-13T00:59:02;100975.78;;;17.72;100.00
49813;BME280;35706;52.100;5.056;2023-10-13T01:00:04;100977.72;;;17.78;100.00
49813;BME280;35706;52.100;5.056;2023-10-13T01:01:17;100973.38;;;17.77;100.00
49813;BME280;35706;52.100;5.056;2023-10-13T01:02:18;100977.78;;;17.70;100.00
49813;BME280;35706;52.100;5.056;2023-10-13T01:03:36;100979.63;;;17.69;100.00
49813;BME280;35706;52.100;5.056;2023-10-13T01:04:38;100967.78;;;17.72;100.00
49813;BME280;35706;52.100;5.056;2023-10-13T01:05:40;100967.03;;;17.86;100.00
49813;BME280;35706;52.100;5.056;2023-10-13T01:06:40;100963.41;;;17.79;100.00
49813;BME280;35706;52.100;5.056;2023-10-13T01:07:41;100962.34;;;17.88;100.00
49813;BME280;35706;52.100;5.056;2023-10-13T01:08:41;100962.88;;;17.84;100.00
49813;BME280;35706;52.100;5.056;2023-10-13T01:09:44;100966.06;;;17.79;100.00
49813;BME280;35706;52.100;5.056;2023-10-13T01:10:47;100962.00;;;17.92;100.00
49813;BME280;35706;52.100;5.056;2023-10-13T01:11:50;100960.88;;;17.86;100.00
49813;BME280;35706;52.100;5.056;2023-10-13T01:12:54;100957.56;;;17.84;100.00
49813;BME280;35706;52.100;5.056;2023-10-13T01:13:55;100960.06;;;17.85;100.00
49813;BME280;35706;52.100;5.056;2023-10-13T01:14:57;100965.00;;;17.88;100.00
49813;BME280;35706;52.100;5.056;2023-10-13T01:15:57;100947.19;;;17.74;100.00
49813;BME280;35706;52.100;5.056;2023-10-13T01:16:58;100954.03;;;17.68;100.00
49813;BME280;35706;52.100;5.056;2023-10-13T01:18:10;100947.63;;;17.78;100.00
49813;BME280;35706;52.100;5.056;2023-10-13T01:19:13;100947.81;;;17.76;100.00
49813;BME280;35706;52.100;5.056;2023-10-13T01:20:17;100940.19;;;17.73;100.00
49813;BME280;35706;52.100;5.056;2023-10-13T01:21:26;100935.69;;;17.74;100.00
49813;BME280;35706;52.100;5.056;2023-10-13T01:22:27;100929.47;;;17.66;100.00
49813;BME280;35706;52.100;5.056;2023-10-13T01:23:29;100938.56;;;17.72;100.00
49813;BME280;35706;52.100;5.056;2023-10-13T01:24:38;100941.84;;;17.74;100.00
49813;BME280;35706;52.100;5.056;2023-10-13T01:25:38;100929.75;;;17.72;100.00
49813;BME280;35706;52.100;5.056;2023-10-13T01:26:40;100939.16;;;17.82;100.00
49813;BME280;35706;52.100;5.056;2023-10-13T01:27:42;100945.44;;;17.81;100.00
49813;BME280;35706;52.100;5.056;2023-10-13T01:28:43;100938.25;;;17.67;100.00
49813;BME280;35706;52.100;5.056;2023-10-13T01:29:47;100937.16;;;17.84;100.00
49813;BME280;35706;52.100;5.056;2023-10-13T01:30:48;100926.25;;;17.71;100.00
49813;BME280;35706;52.100;5.056;2023-10-13T01:31:51;100929.22;;;17.76;100.00
49813;BME280;35706;52.100;5.056;2023-10-13T01:32:53;100930.16;;;17.83;100.00
49813;BME280;35706;52.100;5.056;2023-10-13T01:33:54;100936.88;;;17.71;100.00
49813;BME280;35706;52.100;5.056;2023-10-13T01:34:58;100925.91;;;17.74;100.00
49813;BME280;35706;52.100;5.056;2023-10-13T01:36:06;100935.06;;;17.72;100.00
49813;BME280;35706;52.100;5.056;2023-10-13T01:37:08;100928.25;;;17.69;100.00
49813;BME280;35706;52.100;5.056;2023-10-13T01:38:10;100923.91;;;17.76;100.00
49813;BME280;35706;52.100;5.056;2023-10-13T01:39:11;100929.13;;;17.69;100.00
49813;BME280;35706;52.100;5.056;2023-10-13T01:40:16;100935.31;;;17.62;100.00
49813;BME280;35706;52.100;5.056;2023-10-13T01:41:21;100918.28;;;17.71;100.00
49813;BME280;35706;52.100;5.056;2023-10-13T01:42:22;100922.84;;;17.62;100.00
49813;BME280;35706;52.100;5.056;2023-10-13T01:43:24;100923.22;;;17.59;100.00
49813;BME280;35706;52.100;5.056;2023-10-13T01:44:26;100918.84;;;17.81;100.00
49813;BME280;35706;52.100;5.056;2023-10-13T01:45:30;100915.91;;;17.76;100.00
49813;BME280;35706;52.100;5.056;2023-10-13T01:46:31;100918.38;;;17.78;100.00
49813;BME280;35706;52.100;5.056;2023-10-13T01:47:33;100934.31;;;17.78;100.00
49813;BME280;35706;52.100;5.056;2023-10-13T01:48:33;100925.34;;;17.64;100.00
49813;BME280;35706;52.100;5.056;2023-10-13T01:49:39;100918.59;;;17.76;100.00
49813;BME280;35706;52.100;5.056;2023-10-13T01:50:45;100923.25;;;17.74;100.00
49813;BME280;35706;52.100;5.056;2023-10-13T01:51:48;100918.47;;;17.69;100.00
49813;BME280;35706;52.100;5.056;2023-10-13T01:52:48;100923.91;;;17.76;100.00
49813;BME280;35706;52.100;5.056;2023-10-13T01:53:48;100913.97;;;17.70;100.00
49813;BME280;35706;52.100;5.056;2023-10-13T01:54:56;100914.97;;;17.69;100.00
49813;BME280;35706;52.100;5.056;2023-10-13T01:55:58;100909.50;;;17.70;100.00
49813;BME280;35706;52.100;5.056;2023-10-13T01:56:58;100906.00;;;17.70;100.00
49813;BME280;35706;52.100;5.056;2023-10-13T01:58:00;100904.72;;;17.66;100.00
49813;BME280;35706;52.100;5.056;2023-10-13T01:59:00;100908.03;;;17.68;100.00
49813;BME280;35706;52.100;5.056;2023-10-13T02:00:00;100905.94;;;17.78;100.00
49813;BME280;35706;52.100;5.056;2023-10-13T02:01:10;100910.88;;;17.81;100.00
49813;BME280;35706;52.100;5.056;2023-10-13T02:02:11;100900.63;;;17.78;100.00
49813;BME280;35706;52.100;5.056;2023-10-13T02:03:15;100901.25;;;17.65;100.00
49813;BME280;35706;52.100;5.056;2023-10-13T02:04:16;100904.00;;;17.72;100.00
49813;BME280;35706;52.100;5.056;2023-10-13T02:05:21;100901.94;;;17.82;100.00
49813;BME280;35706;52.100;5.056;2023-10-13T02:06:28;100900.78;;;17.77;100.00
49813;BME280;35706;52.100;5.056;2023-10-13T02:07:32;100904.63;;;17.59;100.00
49813;BME280;35706;52.100;5.056;2023-10-13T02:08:34;100906.34;;;17.67;100.00
49813;BME280;35706;52.100;5.056;2023-10-13T02:09:40;100898.59;;;17.65;100.00
49813;BME280;35706;52.100;5.056;2023-10-13T02:10:40;100891.91;;;17.69;100.00
49813;BME280;35706;52.100;5.056;2023-10-13T02:11:44;100892.63;;;17.78;100.00
49813;BME280;35706;52.100;5.056;2023-10-13T02:12:47;100895.19;;;17.72;100.00
49813;BME280;35706;52.100;5.056;2023-10-13T02:13:47;100894.72;;;17.68;100.00
49813;BME280;35706;52.100;5.056;2023-10-13T02:14:54;100891.53;;;17.73;100.00
49813;BME280;35706;52.100;5.056;2023-10-13T02:15:56;100913.69;;;17.65;100.00
49813;BME280;35706;52.100;5.056;2023-10-13T02:16:56;100892.91;;;17.68;100.00
49813;BME280;35706;52.100;5.056;2023-10-13T02:18:16;100886.22;;;17.73;100.00
49813;BME280;35706;52.100;5.056;2023-10-13T02:19:26;100889.88;;;17.72;100.00
49813;BME280;35706;52.100;5.056;2023-10-13T02:20:28;100887.66;;;17.75;100.00
49813;BME280;35706;52.100;5.056;2023-10-13T02:21:34;100903.22;;;17.86;100.00
49813;BME280;35706;52.100;5.056;2023-10-13T02:22:39;100887.41;;;17.70;100.00
49813;BME280;35706;52.100;5.056;2023-10-13T02:23:40;100875.38;;;17.59;100.00
49813;BME280;35706;52.100;5.056;2023-10-13T02:24:44;100890.72;;;17.72;100.00
49813;BME280;35706;52.100;5.056;2023-10-13T02:25:45;100878.88;;;17.60;100.00
49813;BME280;35706;52.100;5.056;2023-10-13T02:26:46;100877.13;;;17.67;100.00
49813;BME280;35706;52.100;5.056;2023-10-13T02:27:46;100866.13;;;17.70;100.00
49813;BME280;35706;52.100;5.056;2023-10-13T02:28:59;100871.06;;;17.73;100.00
49813;BME280;35706;52.100;5.056;2023-10-13T02:30:02;100875.00;;;17.62;100.00
49813;BME280;35706;52.100;5.056;2023-10-13T02:31:03;100857.44;;;17.61;100.00
49813;BME280;35706;52.100;5.056;2023-10-13T02:32:03;100867.22;;;17.76;100.00
49813;BME280;35706;52.100;5.056;2023-10-13T02:33:04;100860.09;;;17.76;100.00
49813;BME280;35706;52.100;5.056;2023-10-13T02:34:07;100851.09;;;17.77;100.00
49813;BME280;35706;52.100;5.056;2023-10-13T02:35:08;100856.22;;;17.64;100.00
49813;BME280;35706;52.100;5.056;2023-10-13T02:36:10;100840.28;;;17.79;100.00
49813;BME280;35706;52.100;5.056;2023-10-13T02:37:12;100851.69;;;17.87;100.00
49813;BME280;35706;52.100;5.056;2023-10-13T02:38:13;100847.72;;;17.83;100.00
49813;BME280;35706;52.100;5.056;2023-10-13T02:39:16;100840.84;;;17.74;100.00
49813;BME280;35706;52.100;5.056;2023-10-13T02:40:16;100843.28;;;17.76;100.00
49813;BME280;35706;52.100;5.056;2023-10-13T02:41:23;100846.34;;;17.73;100.00
49813;BME280;35706;52.100;5.056;2023-10-13T02:42:26;100841.19;;;17.71;100.00
49813;BME280;35706;52.100;5.056;2023-10-13T02:43:26;100845.69;;;17.70;100.00
49813;BME280;35706;52.100;5.056;2023-10-13T02:44:34;100840.78;;;17.82;100.00
49813;BME280;35706;52.100;5.056;2023-10-13T02:45:36;100841.28;;;17.78;100.00
49813;BME280;35706;52.100;5.056;2023-10-13T02:46:36;100830.59;;;17.86;100.00
49813;BME280;35706;52.100;5.056;2023-10-13T02:47:39;100827.09;;;17.85;100.00
49813;BME280;35706;52.100;5.056;2023-10-13T02:48:41;100821.28;;;17.82;100.00
49813;BME280;35706;52.100;5.056;2023-10-13T02:49:42;100829.28;;;17.82;100.00
49813;BME280;35706;52.100;5.056;2023-10-13T02:50:55;100827.38;;;17.90;100.00
49813;BME280;35706;52.100;5.056;2023-10-13T02:51:56;100824.28;;;17.87;100.00
49813;BME280;35706;52.100;5.056;2023-10-13T02:52:56;100813.25;;;17.90;100.00
49813;BME280;35706;52.100;5.056;2023-10-13T02:53:57;100812.25;;;17.76;100.00
49813;BME280;35706;52.100;5.056;2023-10-13T02:55:03;100813.81;;;17.85;100.00
49813;BME280;35706;52.100;5.056;2023-10-13T02:56:08;100804.00;;;17.86;100.00
49813;BME280;35706;52.100;5.056;2023-10-13T02:57:13;100800.97;;;17.74;100.00
49813;BME280;35706;52.100;5.056;2023-10-13T02:58:15;100802.34;;;17.70;100.00
49813;BME280;35706;52.100;5.056;2023-10-13T02:59:16;100789.13;;;17.77;100.00
49813;BME280;35706;52.100;5.056;2023-10-13T03:00:19;100784.19;;;17.59;100.00
49813;BME280;35706;52.100;5.056;2023-10-13T03:01:23;100778.59;;;17.68;100.00
49813;BME280;35706;52.100;5.056;2023-10-13T03:02:29;100770.13;;;17.80;100.00
49813;BME280;35706;52.100;5.056;2023-10-13T03:03:31;100771.34;;;17.77;100.00
49813;BME280;35706;52.100;5.056;2023-10-13T03:04:31;100774.56;;;17.87;100.00
49813;BME280;35706;52.100;5.056;2023-10-13T03:05:34;100771.63;;;17.97;100.00
49813;BME280;35706;52.100;5.056;2023-10-13T03:06:36;100776.31;;;17.80;100.00
49813;BME280;35706;52.100;5.056;2023-10-13T03:07:40;100765.66;;;17.80;100.00
49813;BME280;35706;52.100;5.056;2023-10-13T03:08:44;100757.50;;;17.67;100.00
49813;BME280;35706;52.100;5.056;2023-10-13T03:09:44;100767.13;;;17.68;100.00
49813;BME280;35706;52.100;5.056;2023-10-13T03:10:50;100764.84;;;17.65;100.00
49813;BME280;35706;52.100;5.056;2023-10-13T03:11:54;100767.88;;;17.62;100.00
49813;BME280;35706;52.100;5.056;2023-10-13T03:12:54;100774.97;;;17.84;100.00
49813;BME280;35706;52.100;5.056;2023-10-13T03:13:55;100779.50;;;17.76;100.00
49813;BME280;35706;52.100;5.056;2023-10-13T03:14:55;100774.94;;;17.69;100.00
49813;BME280;35706;52.100;5.056;2023-10-13T03:15:57;100779.41;;;17.69;100.00
49813;BME280;35706;52.100;5.056;2023-10-13T03:16:59;100768.22;;;17.74;100.00
49813;BME280;35706;52.100;5.056;2023-10-13T03:18:04;100773.66;;;17.65;100.00
49813;BME280;35706;52.100;5.056;2023-10-13T03:19:05;100774.47;;;17.66;100.00
49813;BME280;35706;52.100;5.056;2023-10-13T03:20:09;100771.34;;;17.62;100.00
49813;BME280;35706;52.100;5.056;2023-10-13T03:21:14;100757.88;;;17.79;100.00
49813;BME280;35706;52.100;5.056;2023-10-13T03:22:28;100767.41;;;17.58;100.00
49813;BME280;35706;52.100;5.056;2023-10-13T03:23:31;100772.47;;;17.68;100.00
49813;BME280;35706;52.100;5.056;2023-10-13T03:24:45;100774.00;;;17.62;100.00
49813;BME280;35706;52.100;5.056;2023-10-13T03:25:48;100767.97;;;17.68;100.00
49813;BME280;35706;52.100;5.056;2023-10-13T03:26:55;100762.56;;;17.62;100.00
49813;BME280;35706;52.100;5.056;2023-10-13T03:27:56;100753.38;;;17.64;100.00
49813;BME280;35706;52.100;5.056;2023-10-13T03:28:57;100748.44;;;17.76;100.00
49813;BME280;35706;52.100;5.056;2023-10-13T03:29:58;100745.13;;;17.74;100.00
49813;BME280;35706;52.100;5.056;2023-10-13T03:31:00;100739.25;;;17.79;100.00
49813;BME280;35706;52.100;5.056;2023-10-13T03:32:03;100741.22;;;17.85;100.00
49813;BME280;35706;52.100;5.056;2023-10-13T03:33:08;100744.13;;;17.60;100.00
49813;BME280;35706;52.100;5.056;2023-10-13T03:34:25;100728.56;;;17.57;100.00
49813;BME280;35706;52.100;5.056;2023-10-13T03:35:29;100716.75;;;17.60;100.00
49813;BME280;35706;52.100;5.056;2023-10-13T03:36:52;100720.50;;;17.65;100.00
49813;BME280;35706;52.100;5.056;2023-10-13T03:37:57;100716.28;;;17.56;100.00
49813;BME280;35706;52.100;5.056;2023-10-13T03:38:57;100715.81;;;17.67;100.00
49813;BME280;35706;52.100;5.056;2023-10-13T03:39:58;100701.69;;;17.67;100.00
49813;BME280;35706;52.100;5.056;2023-10-13T03:40:59;100694.00;;;17.72;100.00
49813;BME280;35706;52.100;5.056;2023-10-13T03:42:18;100696.81;;;17.85;100.00
49813;BME280;35706;52.100;5.056;2023-10-13T03:43:19;100688.28;;;17.90;100.00
49813;BME280;35706;52.100;5.056;2023-10-13T03:44:21;100675.09;;;17.67;100.00
49813;BME280;35706;52.100;5.056;2023-10-13T03:45:23;100678.41;;;17.69;100.00
49813;BME280;35706;52.100;5.056;2023-10-13T03:46:24;100680.63;;;17.65;100.00
49813;BME280;35706;52.100;5.056;2023-10-13T03:47:26;100679.34;;;17.61;100.00
49813;BME280;35706;52.100;5.056;2023-10-13T03:48:27;100672.34;;;17.75;100.00
49813;BME280;35706;52.100;5.056;2023-10-13T03:49:27;100680.06;;;17.70;100.00
49813;BME280;35706;52.100;5.056;2023-10-13T03:50:29;100677.41;;;17.70;100.00
49813;BME280;35706;52.100;5.056;2023-10-13T03:51:31;100663.38;;;17.76;100.00
49813;BME280;35706;52.100;5.056;2023-10-13T03:52:31;100656.66;;;17.80;100.00
49813;BME280;35706;52.100;5.056;2023-10-13T03:53:38;100668.91;;;17.60;100.00
49813;BME280;35706;52.100;5.056;2023-10-13T03:54:52;100664.03;;;17.63;100.00
49813;BME280;35706;52.100;5.056;2023-10-13T03:55:52;100664.47;;;17.67;100.00
49813;BME280;35706;52.100;5.056;2023-10-13T03:57:08;100659.53;;;17.64;100.00
49813;BME280;35706;52.100;5.056;2023-10-13T03:58:14;100650.72;;;17.78;100.00
49813;BME280;35706;52.100;5.056;2023-10-13T03:59:17;100654.09;;;17.50;100.00
49813;BME280;35706;52.100;5.056;2023-10-13T04:00:17;100661.63;;;17.68;100.00
49813;BME280;35706;52.100;5.056;2023-10-13T04:01:25;100649.59;;;17.51;100.00
49813;BME280;35706;52.100;5.056;2023-10-13T04:02:32;100645.34;;;17.57;100.00
49813;BME280;35706;52.100;5.056;2023-10-13T04:03:32;100641.25;;;17.76;100.00
49813;BME280;35706;52.100;5.056;2023-10-13T04:04:36;100645.44;;;17.63;100.00
49813;BME280;35706;52.100;5.056;2023-10-13T04:05:36;100637.06;;;17.66;100.00
49813;BME280;35706;52.100;5.056;2023-10-13T04:06:42;100633.91;;;17.78;100.00
49813;BME280;35706;52.100;5.056;2023-10-13T04:07:52;100643.41;;;17.65;100.00
49813;BME280;35706;52.100;5.056;2023-10-13T04:09:14;100626.06;;;17.84;100.00
49813;BME280;35706;52.100;5.056;2023-10-13T04:10:30;100627.66;;;17.64;100.00
49813;BME280;35706;52.100;5.056;2023-10-13T04:11:45;100628.84;;;17.61;100.00
49813;BME280;35706;52.100;5.056;2023-10-13T04:13:03;100623.09;;;17.58;100.00
49813;BME280;35706;52.100;5.056;2023-10-13T04:14:22;100627.47;;;17.65;100.00
49813;BME280;35706;52.100;5.056;2023-10-13T04:15:45;100614.59;;;17.69;100.00
49813;BME280;35706;52.100;5.056;2023-10-13T04:17:04;100618.75;;;17.57;100.00
49813;BME280;35706;52.100;5.056;2023-10-13T04:18:13;100606.63;;;17.69;100.00
49813;BME280;35706;52.100;5.056;2023-10-13T04:19:30;100602.81;;;17.72;100.00
49813;BME280;35706;52.100;5.056;2023-10-13T04:20:37;100601.94;;;17.71;100.00
49813;BME280;35706;52.100;5.056;2023-10-13T04:21:38;100604.59;;;17.71;100.00
49813;BME280;35706;52.100;5.056;2023-10-13T04:22:40;100611.94;;;17.69;100.00
49813;BME280;35706;52.100;5.056;2023-10-13T04:23:46;100606.63;;;17.69;100.00
49813;BME280;35706;52.100;5.056;2023-10-13T04:25:11;100603.41;;;17.74;100.00
49813;BME280;35706;52.100;5.056;2023-10-13T04:26:30;100609.88;;;17.64;100.00
49813;BME280;35706;52.100;5.056;2023-10-13T04:27:38;100593.66;;;17.59;100.00
49813;BME280;35706;52.100;5.056;2023-10-13T04:28:54;100607.19;;;17.43;100.00
49813;BME280;35706;52.100;5.056;2023-10-13T04:29:56;100599.03;;;17.44;100.00
49813;BME280;35706;52.100;5.056;2023-10-13T04:30:56;100604.63;;;17.35;100.00
49813;BME280;35706;52.100;5.056;2023-10-13T04:31:57;100588.19;;;17.46;100.00
49813;BME280;35706;52.100;5.056;2023-10-13T04:33:00;100600.63;;;17.24;100.00
49813;BME280;35706;52.100;5.056;2023-10-13T04:34:15;100592.25;;;17.27;100.00
49813;BME280;35706;52.100;5.056;2023-10-13T04:35:19;100592.16;;;17.35;100.00
49813;BME280;35706;52.100;5.056;2023-10-13T04:36:24;100595.28;;;17.39;100.00
49813;BME280;35706;52.100;5.056;2023-10-13T04:37:27;100589.41;;;17.43;100.00
49813;BME280;35706;52.100;5.056;2023-10-13T04:38:33;100595.97;;;17.47;100.00
49813;BME280;35706;52.100;5.056;2023-10-13T04:39:35;100587.13;;;17.40;100.00
49813;BME280;35706;52.100;5.056;2023-10-13T04:40:41;100595.97;;;17.47;100.00
49813;BME280;35706;52.100;5.056;2023-10-13T04:41:58;100586.44;;;17.53;100.00
49813;BME280;35706;52.100;5.056;2023-10-13T04:43:11;100584.53;;;17.47;100.00
49813;BME280;35706;52.100;5.056;2023-10-13T04:44:33;100577.28;;;17.56;100.00
49813;BME280;35706;52.100;5.056;2023-10-13T04:45:48;100583.34;;;17.49;100.00
49813;BME280;35706;52.100;5.056;2023-10-13T04:46:55;100579.94;;;17.56;100.00
49813;BME280;35706;52.100;5.056;2023-10-13T04:48:00;100587.50;;;17.59;100.00
49813;BME280;35706;52.100;5.056;2023-10-13T04:49:21;100578.25;;;17.69;100.00
49813;BME280;35706;52.100;5.056;2023-10-13T04:50:41;100586.63;;;17.52;100.00
49813;BME280;35706;52.100;5.056;2023-10-13T04:51:45;100581.88;;;17.47;100.00
49813;BME280;35706;52.100;5.056;2023-10-13T04:52:58;100573.69;;;17.63;100.00
49813;BME280;35706;52.100;5.056;2023-10-13T04:54:02;100564.50;;;17.66;100.00
49813;BME280;35706;52.100;5.056;2023-10-13T04:55:11;100581.13;;;17.75;100.00
49813;BME280;35706;52.100;5.056;2023-10-13T04:56:24;100568.72;;;17.82;100.00
49813;BME280;35706;52.100;5.056;2023-10-13T04:57:45;100571.38;;;17.82;100.00
49813;BME280;35706;52.100;5.056;2023-10-13T04:58:53;100580.69;;;17.71;100.00
49813;BME280;35706;52.100;5.056;2023-10-13T05:00:13;100567.66;;;17.76;100.00
49813;BME280;35706;52.100;5.056;2023-10-13T05:01:13;100563.47;;;17.67;100.00
49813;BME280;35706;52.100;5.056;2023-10-13T05:02:26;100564.75;;;17.71;100.00
49813;BME280;35706;52.100;5.056;2023-10-13T05:03:52;100564.09;;;17.69;100.00
49813;BME280;35706;52.100;5.056;2023-10-13T05:05:13;100568.09;;;17.80;100.00
49813;BME280;35706;52.100;5.056;2023-10-13T05:06:13;100555.66;;;17.80;100.00
49813;BME280;35706;52.100;5.056;2023-10-13T05:07:34;100561.31;;;17.77;100.00
49813;BME280;35706;52.100;5.056;2023-10-13T05:08:52;100559.22;;;17.87;100.00
49813;BME280;35706;52.100;5.056;2023-10-13T05:10:11;100569.09;;;17.94;100.00
49813;BME280;35706;52.100;5.056;2023-10-13T05:11:31;100562.69;;;17.88;100.00
49813;BME280;35706;52.100;5.056;2023-10-13T05:12:50;100563.75;;;17.94;100.00
49813;BME280;35706;52.100;5.056;2023-10-13T05:14:09;100552.69;;;17.90;100.00
49813;BME280;35706;52.100;5.056;2023-10-13T05:15:28;100561.97;;;18.01;100.00
49813;BME280;35706;52.100;5.056;2023-10-13T05:16:47;100556.97;;;18.13;100.00
49813;BME280;35706;52.100;5.056;2023-10-13T05:18:06;100558.38;;;18.08;100.00
49813;BME280;35706;52.100;5.056;2023-10-13T05:19:25;100563.63;;;18.02;100.00
49813;BME280;35706;52.100;5.056;2023-10-13T05:20:44;100540.69;;;18.01;100.00
49813;BME280;35706;52.100;5.056;2023-10-13T05:22:03;100545.06;;;18.08;100.00
49813;BME280;35706;52.100;5.056;2023-10-13T05:23:22;100546.91;;;18.08;100.00
49813;BME280;35706;52.100;5.056;2023-10-13T05:24:41;100553.72;;;18.17;100.00
49813;BME280;35706;52.100;5.056;2023-10-13T05:26:02;100553.72;;;18.17;100.00
49813;BME280;35706;52.100;5.056;2023-10-13T05:27:21;100540.81;;;18.14;100.00
49813;BME280;35706;52.100;5.056;2023-10-13T05:28:40;100528.91;;;18.10;100.00
49813;BME280;35706;52.100;5.056;2023-10-13T05:29:59;100532.22;;;18.12;100.00
49813;BME280;35706;52.100;5.056;2023-10-13T05:31:21;100529.91;;;18.09;100.00
49813;BME280;35706;52.100;5.056;2023-10-13T05:32:40;100538.53;;;18.11;100.00
49813;BME280;35706;52.100;5.056;2023-10-13T05:33:59;100535.44;;;18.07;100.00
49813;BME280;35706;52.100;5.056;2023-10-13T05:35:20;100531.44;;;18.18;100.00
49813;BME280;35706;52.100;5.056;2023-10-13T05:36:39;100532.34;;;18.04;100.00
49813;BME280;35706;52.100;5.056;2023-10-13T05:37:58;100510.03;;;18.05;100.00
49813;BME280;35706;52.100;5.056;2023-10-13T05:39:18;100522.94;;;18.01;100.00
49813;BME280;35706;52.100;5.056;2023-10-13T05:40:37;100516.97;;;17.99;100.00
49813;BME280;35706;52.100;5.056;2023-10-13T05:41:57;100522.84;;;18.16;100.00